LGKLLGSK

Guest
Details From LGKL - KALAMATA
To LGSK - Skiathos Alexandros Papadiamantis
Flight Number -
Tags generated
Created
Modified
Stats Distance 145 nm / 268 km
Max Altitude 15,400 ft / 4,694 m
Waypoints 3
Social Downloads 4
Likes 0
Share VATSIM

Download

Looking for another format? Having issues loading an existing format? Contact us
Advertisement - Login to hide

Notes

Basic altitude profile: - Ascent Rate: 2500ft/min - Ascent Speed: 250kts - Cruise Altitude: 25000ft - Cruise Speed: 420kts - Descent Rate: 1500ft/min - Descent Speed: 250kts Options: - Use NATs: yes - Use PACOTS: yes - Use low airways: yes - Use high airways: yes

Route

LGKL PIKAD LGSK

ID Type Via Altitude Latitude Longitude Leg Dist Tot Dist Heading (true) Name
O LGKL APT - 0 ft / 0 m 37.06832˚ 22.02552˚ - 0 nm - KALAMATA
PIKAD FIX - 15,400 ft / 4,694 m 38.06139˚ 22.69778˚ 67 nm 67 nm 28° / 28° -
O LGSK APT - 0 ft / 0 m 39.17710˚ 23.50368˚ 76 nm 144 nm 29° / 30° Skiathos Alexandros Papadiamantis

Altitude Profile

Advertisement - Login to hide

LGKL

Details ICAO LGKL (KLX)
Name KALAMATA
Region Greece
Timezone Europe/Athens (UTC+3.0)
Stats Elevation 26 ft / 8 m (AMSL)
Location 37.068320° 22.025523°
Runways 1
Magnetic Variation 4.204° E

METAR

LGKL 231320Z 18008KT 8000 FEW030 27/13 Q1014

Decode

TAF

Not found

Departure Runways

ID Width Length Bearing (true) Bearing (mag) Surface Threshold Offset Overrun Length
17R 148 ft / 45 m 9,274 ft / 2,827 m 169.51° 165.31° Asphalt 240 ft / 73 m 320 ft / 98 m
35L 148 ft / 45 m 9,274 ft / 2,827 m 349.51° 345.31° Asphalt 250 ft / 76 m 310 ft / 94 m

LGSK

Details ICAO LGSK (JSI)
Name Skiathos Alexandros Papadiamantis
Region Greece
Timezone Europe/Athens (UTC+3.0)
Stats Elevation 54 ft / 16 m (AMSL)
Location 39.177100° 23.503677°
Runways 1
Magnetic Variation 4.597° E

METAR

LGSK 231250Z 02009KT 9999 FEW020 SCT025 22/16 Q1017

Decode

TAF

Not found

Destination Runways

ID Width Length Bearing (true) Bearing (mag) Surface Threshold Offset Overrun Length
02 98 ft / 30 m 5,535 ft / 1,687 m 18.96° 14.36° Asphalt 190 ft / 58 m 0 ft / 0 m
20 98 ft / 30 m 5,535 ft / 1,687 m 198.97° 194.37° Asphalt 0 ft / 0 m 242 ft / 74 m